PWSweather.com
Personal Weather Stations
Station Observations
KOHAVON11
Long Road Station, Avon, OH 44011

Long Road StationAvon, OH 44011

Lat: 41.437, Lon: -82.0477

Elevation: 686

Station Type: Davis Vantage Pro2

http://www.avon-weather.com

Latest ConditionsUpdated 12:51:54 PM EST Friday, Dec 2, 2016
Currently Today's Max Today's Min Today's Average
Temperature 39.9°F4.4°C 39.9°F4.4°C 35.3°F1.8°C 37.5°F3.1°C
Dew Point 31.5°F-0.3°C 31.9°F-0.1°C 28.8°F-1.8°C 30.4°F-0.9°C
Winds 6.0 mph W9.7 kmh W 16.0 mph WNW25.7 kmh WNW - 7.7 mph 12.4 kmh
Wind Gusts 15.0 mph24.1 kmh 24.0 mph38.6 kmh - -
Humidity 72% 80% 72% 75%
Pressure 30.07 in1018.3 mb 30.08 in1018.6 mb 29.95 in1014.2 mb -
Hour Temp Dew Point Humidity Winds Wind Gusts Pressure Precip Precip Rate Daily Precip Total
12:51 PM 39.9°F4.4°C 31.5°F-0.3°C 72% 6.0 mph W9.7 kmh W 15.0 mph24.1 kmh 30.07 in1018.3 mb 0.00 in0.0 mm 0.00 in0.0 mm 0.00 in0.0 mm
12:46 PM 39.9°F4.4°C 31.5°F-0.3°C 72% 10.0 mph WNW16.1 kmh WNW 15.0 mph24.1 kmh 30.06 in1017.9 mb 0.00 in0.0 mm 0.00 in0.0 mm 0.00 in0.0 mm
12:41 PM 39.8°F4.3°C 31.4°F-0.3°C 72% 9.0 mph WSW14.5 kmh WSW 17.0 mph27.4 kmh 30.07 in1018.3 mb 0.00 in0.0 mm 0.00 in0.0 mm 0.00 in0.0 mm
12:36 PM 39.8°F4.3°C 31.4°F-0.3°C 72% 7.0 mph WNW11.3 kmh WNW 17.0 mph27.4 kmh 30.06 in1017.9 mb 0.00 in0.0 mm 0.00 in0.0 mm 0.00 in0.0 mm
12:31 PM 39.8°F4.3°C 31.4°F-0.3°C 72% 8.0 mph W12.9 kmh W 17.0 mph27.4 kmh 30.07 in1018.3 mb 0.00 in0.0 mm 0.00 in0.0 mm 0.00 in0.0 mm
12:26 PM 39.8°F4.3°C 31.8°F-0.1°C 73% 6.0 mph WSW9.7 kmh WSW 17.0 mph27.4 kmh 30.06 in1017.9 mb 0.00 in0.0 mm 0.00 in0.0 mm 0.00 in0.0 mm
12:21 PM 39.8°F4.3°C 31.8°F-0.1°C 73% 11.0 mph WSW17.7 kmh WSW 19.0 mph30.6 kmh 30.06 in1017.9 mb 0.00 in0.0 mm 0.00 in0.0 mm 0.00 in0.0 mm
12:16 PM 39.7°F4.3°C 31.7°F-0.2°C 73% 7.0 mph WSW11.3 kmh WSW 19.0 mph30.6 kmh 30.06 in1017.9 mb 0.00 in0.0 mm 0.00 in0.0 mm 0.00 in0.0 mm
12:11 PM 39.6°F4.2°C 31.6°F-0.2°C 73% 6.0 mph W9.7 kmh W 19.0 mph30.6 kmh 30.06 in1017.9 mb 0.00 in0.0 mm 0.00 in0.0 mm 0.00 in0.0 mm
12:06 PM 39.6°F4.2°C 31.6°F-0.2°C 73% 16.0 mph NW25.7 kmh NW 19.0 mph30.6 kmh 30.06 in1017.9 mb 0.00 in0.0 mm 0.00 in0.0 mm 0.00 in0.0 mm
12:01 PM 39.6°F4.2°C 31.9°F-0.1°C 74% 13.0 mph SW20.9 kmh SW 19.0 mph30.6 kmh 30.06 in1017.9 mb 0.00 in0.0 mm 0.00 in0.0 mm 0.00 in0.0 mm
11:56 AM 39.6°F4.2°C 31.9°F-0.1°C 74% 10.0 mph W16.1 kmh W 19.0 mph30.6 kmh 30.06 in1017.9 mb 0.00 in0.0 mm 0.00 in0.0 mm 0.00 in0.0 mm
11:51 AM 39.4°F4.1°C 31.7°F-0.2°C 74% 10.0 mph W16.1 kmh W 19.0 mph30.6 kmh 30.07 in1018.3 mb 0.00 in0.0 mm 0.00 in0.0 mm 0.00 in0.0 mm
11:46 AM 39.4°F4.1°C 31.7°F-0.2°C 74% 9.0 mph WNW14.5 kmh WNW 19.0 mph30.6 kmh 30.06 in1017.9 mb 0.00 in0.0 mm 0.00 in0.0 mm 0.00 in0.0 mm
11:41 AM 39.2°F4.0°C 31.5°F-0.3°C 74% 13.0 mph WSW20.9 kmh WSW 17.0 mph27.4 kmh 30.06 in1017.9 mb 0.00 in0.0 mm 0.00 in0.0 mm 0.00 in0.0 mm
11:36 AM 39.1°F3.9°C 31.8°F-0.1°C 75% 10.0 mph WSW16.1 kmh WSW 16.0 mph25.7 kmh 30.07 in1018.3 mb 0.00 in0.0 mm 0.00 in0.0 mm 0.00 in0.0 mm
11:31 AM 38.9°F3.8°C 31.6°F-0.2°C 75% 13.0 mph W20.9 kmh W 16.0 mph25.7 kmh 30.07 in1018.3 mb 0.00 in0.0 mm 0.00 in0.0 mm 0.00 in0.0 mm
11:26 AM 38.7°F3.7°C 31.0°F-0.6°C 74% 10.0 mph WSW16.1 kmh WSW 16.0 mph25.7 kmh 30.07 in1018.3 mb 0.00 in0.0 mm 0.00 in0.0 mm 0.00 in0.0 mm
11:21 AM 38.7°F3.7°C 31.0°F-0.6°C 74% 8.0 mph W12.9 kmh W 16.0 mph25.7 kmh 30.07 in1018.3 mb 0.00 in0.0 mm 0.00 in0.0 mm 0.00 in0.0 mm
11:16 AM 38.6°F3.7°C 31.3°F-0.4°C 75% 11.0 mph WSW17.7 kmh WSW 14.0 mph22.5 kmh 30.07 in1018.3 mb 0.00 in0.0 mm 0.00 in0.0 mm 0.00 in0.0 mm
11:11 AM 38.6°F3.7°C 30.9°F-0.6°C 74% 12.0 mph WSW19.3 kmh WSW 16.0 mph25.7 kmh 30.07 in1018.3 mb 0.00 in0.0 mm 0.00 in0.0 mm 0.00 in0.0 mm
11:06 AM 38.6°F3.7°C 30.9°F-0.6°C 74% 6.0 mph W9.7 kmh W 16.0 mph25.7 kmh 30.08 in1018.6 mb 0.00 in0.0 mm 0.00 in0.0 mm 0.00 in0.0 mm
11:01 AM 38.5°F3.6°C 30.8°F-0.7°C 74% 9.0 mph WSW14.5 kmh WSW 16.0 mph25.7 kmh 30.08 in1018.6 mb 0.00 in0.0 mm 0.00 in0.0 mm 0.00 in0.0 mm
10:56 AM 38.5°F3.6°C 30.8°F-0.7°C 74% 7.0 mph WSW11.3 kmh WSW 16.0 mph25.7 kmh 30.08 in1018.6 mb 0.00 in0.0 mm 0.00 in0.0 mm 0.00 in0.0 mm
10:51 AM 38.5°F3.6°C 30.8°F-0.7°C 74% 5.0 mph W8.0 kmh W 17.0 mph27.4 kmh 30.08 in1018.6 mb 0.00 in0.0 mm 0.00 in0.0 mm 0.00 in0.0 mm
10:46 AM 38.4°F3.6°C 30.8°F-0.7°C 74% 6.0 mph W9.7 kmh W 17.0 mph27.4 kmh 30.08 in1018.6 mb 0.00 in0.0 mm 0.00 in0.0 mm 0.00 in0.0 mm
10:41 AM 38.4°F3.6°C 30.8°F-0.7°C 74% 11.0 mph WSW17.7 kmh WSW 17.0 mph27.4 kmh 30.08 in1018.6 mb 0.00 in0.0 mm 0.00 in0.0 mm 0.00 in0.0 mm
10:36 AM 38.4°F3.6°C 30.8°F-0.7°C 74% 10.0 mph WSW16.1 kmh WSW 17.0 mph27.4 kmh 30.08 in1018.6 mb 0.00 in0.0 mm 0.00 in0.0 mm 0.00 in0.0 mm
10:31 AM 38.4°F3.6°C 30.8°F-0.7°C 74% 10.0 mph W16.1 kmh W 16.0 mph25.7 kmh 30.08 in1018.6 mb 0.00 in0.0 mm 0.00 in0.0 mm 0.00 in0.0 mm
10:26 AM 38.4°F3.6°C 30.8°F-0.7°C 74% 5.0 mph W8.0 kmh W 17.0 mph27.4 kmh 30.08 in1018.6 mb 0.00 in0.0 mm 0.00 in0.0 mm 0.00 in0.0 mm
10:21 AM 38.4°F3.6°C 30.8°F-0.7°C 74% 11.0 mph WSW17.7 kmh WSW 17.0 mph27.4 kmh 30.08 in1018.6 mb 0.00 in0.0 mm 0.00 in0.0 mm 0.00 in0.0 mm
10:16 AM 38.4°F3.6°C 30.8°F-0.7°C 74% 12.0 mph W19.3 kmh W 19.0 mph30.6 kmh 30.07 in1018.3 mb 0.00 in0.0 mm 0.00 in0.0 mm 0.00 in0.0 mm
10:11 AM 38.4°F3.6°C 30.8°F-0.7°C 74% 14.0 mph SW22.5 kmh SW 19.0 mph30.6 kmh 30.08 in1018.6 mb 0.00 in0.0 mm 0.00 in0.0 mm 0.00 in0.0 mm
10:06 AM 38.3°F3.5°C 30.7°F-0.7°C 74% 7.0 mph WNW11.3 kmh WNW 19.0 mph30.6 kmh 30.07 in1018.3 mb 0.00 in0.0 mm 0.00 in0.0 mm 0.00 in0.0 mm
10:01 AM 38.2°F3.4°C 30.6°F-0.8°C 74% 16.0 mph WNW25.7 kmh WNW 19.0 mph30.6 kmh 30.07 in1018.3 mb 0.00 in0.0 mm 0.00 in0.0 mm 0.00 in0.0 mm
09:56 AM 38.2°F3.4°C 30.6°F-0.8°C 74% 12.0 mph W19.3 kmh W 21.0 mph33.8 kmh 30.07 in1018.3 mb 0.00 in0.0 mm 0.00 in0.0 mm 0.00 in0.0 mm
09:51 AM 38.2°F3.4°C 30.9°F-0.6°C 75% 11.0 mph WNW17.7 kmh WNW 21.0 mph33.8 kmh 30.07 in1018.3 mb 0.00 in0.0 mm 0.00 in0.0 mm 0.00 in0.0 mm
09:46 AM 38.1°F3.4°C 30.8°F-0.7°C 75% 12.0 mph W19.3 kmh W 21.0 mph33.8 kmh 30.07 in1018.3 mb 0.00 in0.0 mm 0.00 in0.0 mm 0.00 in0.0 mm
09:41 AM 38.1°F3.4°C 30.8°F-0.7°C 75% 5.0 mph W8.0 kmh W 21.0 mph33.8 kmh 30.07 in1018.3 mb 0.00 in0.0 mm 0.00 in0.0 mm 0.00 in0.0 mm
09:36 AM 38.0°F3.3°C 30.7°F-0.7°C 75% 11.0 mph W17.7 kmh W 16.0 mph25.7 kmh 30.07 in1018.3 mb 0.00 in0.0 mm 0.00 in0.0 mm 0.00 in0.0 mm
09:31 AM 38.0°F3.3°C 30.7°F-0.7°C 75% 9.0 mph WSW14.5 kmh WSW 17.0 mph27.4 kmh 30.07 in1018.3 mb 0.00 in0.0 mm 0.00 in0.0 mm 0.00 in0.0 mm
09:26 AM 37.9°F3.3°C 30.6°F-0.8°C 75% 5.0 mph W8.0 kmh W 17.0 mph27.4 kmh 30.07 in1018.3 mb 0.00 in0.0 mm 0.00 in0.0 mm 0.00 in0.0 mm
09:21 AM 37.9°F3.3°C 30.3°F-0.9°C 74% 8.0 mph WSW12.9 kmh WSW 24.0 mph38.6 kmh 30.06 in1017.9 mb 0.00 in0.0 mm 0.00 in0.0 mm 0.00 in0.0 mm
09:16 AM 37.9°F3.3°C 30.3°F-0.9°C 74% 13.0 mph WSW20.9 kmh WSW 24.0 mph38.6 kmh 30.06 in1017.9 mb 0.00 in0.0 mm 0.00 in0.0 mm 0.00 in0.0 mm
09:11 AM 37.9°F3.3°C 30.3°F-0.9°C 74% 14.0 mph W22.5 kmh W 24.0 mph38.6 kmh 30.06 in1017.9 mb 0.00 in0.0 mm 0.00 in0.0 mm 0.00 in0.0 mm
09:06 AM 37.8°F3.2°C 30.2°F-1.0°C 74% 15.0 mph WSW24.1 kmh WSW 24.0 mph38.6 kmh 30.06 in1017.9 mb 0.00 in0.0 mm 0.00 in0.0 mm 0.00 in0.0 mm
09:01 AM 37.8°F3.2°C 30.2°F-1.0°C 74% 13.0 mph W20.9 kmh W 22.0 mph35.4 kmh 30.06 in1017.9 mb 0.00 in0.0 mm 0.00 in0.0 mm 0.00 in0.0 mm
08:56 AM 37.8°F3.2°C 30.2°F-1.0°C 74% 12.0 mph WSW19.3 kmh WSW 22.0 mph35.4 kmh 30.06 in1017.9 mb 0.00 in0.0 mm 0.00 in0.0 mm 0.00 in0.0 mm
08:51 AM 37.7°F3.2°C 30.4°F-0.9°C 75% 10.0 mph WSW16.1 kmh WSW 22.0 mph35.4 kmh 30.05 in1017.6 mb 0.00 in0.0 mm 0.00 in0.0 mm 0.00 in0.0 mm
08:46 AM 37.6°F3.1°C 30.3°F-0.9°C 75% 9.0 mph WSW14.5 kmh WSW 22.0 mph35.4 kmh 30.05 in1017.6 mb 0.00 in0.0 mm 0.00 in0.0 mm 0.00 in0.0 mm
08:41 AM 37.5°F3.1°C 30.2°F-1.0°C 75% 12.0 mph WSW19.3 kmh WSW 17.0 mph27.4 kmh 30.06 in1017.9 mb 0.00 in0.0 mm 0.00 in0.0 mm 0.00 in0.0 mm
08:36 AM 37.4°F3.0°C 30.1°F-1.1°C 75% 8.0 mph WSW12.9 kmh WSW 17.0 mph27.4 kmh 30.05 in1017.6 mb 0.00 in0.0 mm 0.00 in0.0 mm 0.00 in0.0 mm
08:31 AM 37.4°F3.0°C 30.1°F-1.1°C 75% 8.0 mph WSW12.9 kmh WSW 17.0 mph27.4 kmh 30.05 in1017.6 mb 0.00 in0.0 mm 0.00 in0.0 mm 0.00 in0.0 mm
08:26 AM 37.4°F3.0°C 30.1°F-1.1°C 75% 6.0 mph W9.7 kmh W 17.0 mph27.4 kmh 30.05 in1017.6 mb 0.00 in0.0 mm 0.00 in0.0 mm 0.00 in0.0 mm
08:21 AM 37.3°F2.9°C 30.0°F-1.1°C 75% 8.0 mph WSW12.9 kmh WSW 18.0 mph29.0 kmh 30.05 in1017.6 mb 0.00 in0.0 mm 0.00 in0.0 mm 0.00 in0.0 mm
08:16 AM 37.3°F2.9°C 30.0°F-1.1°C 75% 12.0 mph W19.3 kmh W 18.0 mph29.0 kmh 30.05 in1017.6 mb 0.00 in0.0 mm 0.00 in0.0 mm 0.00 in0.0 mm
08:11 AM 37.3°F2.9°C 30.0°F-1.1°C 75% 13.0 mph WSW20.9 kmh WSW 18.0 mph29.0 kmh 30.04 in1017.3 mb 0.00 in0.0 mm 0.00 in0.0 mm 0.00 in0.0 mm
08:06 AM 37.2°F2.9°C 29.9°F-1.2°C 75% 6.0 mph WSW9.7 kmh WSW 18.0 mph29.0 kmh 30.04 in1017.3 mb 0.00 in0.0 mm 0.00 in0.0 mm 0.00 in0.0 mm
08:01 AM 37.2°F2.9°C 29.9°F-1.2°C 75% 13.0 mph WSW20.9 kmh WSW 17.0 mph27.4 kmh 30.04 in1017.3 mb 0.00 in0.0 mm 0.00 in0.0 mm 0.00 in0.0 mm
07:56 AM 37.1°F2.8°C 29.8°F-1.2°C 75% 9.0 mph W14.5 kmh W 17.0 mph27.4 kmh 30.04 in1017.3 mb 0.00 in0.0 mm 0.00 in0.0 mm 0.00 in0.0 mm
07:51 AM 37.1°F2.8°C 29.8°F-1.2°C 75% 9.0 mph WSW14.5 kmh WSW 17.0 mph27.4 kmh 30.04 in1017.3 mb 0.00 in0.0 mm 0.00 in0.0 mm 0.00 in0.0 mm
07:46 AM 37.1°F2.8°C 30.2°F-1.0°C 76% 8.0 mph SW12.9 kmh SW 17.0 mph27.4 kmh 30.04 in1017.3 mb 0.00 in0.0 mm 0.00 in0.0 mm 0.00 in0.0 mm
07:41 AM 37.0°F2.8°C 30.1°F-1.1°C 76% 11.0 mph WSW17.7 kmh WSW 17.0 mph27.4 kmh 30.04 in1017.3 mb 0.00 in0.0 mm 0.00 in0.0 mm 0.00 in0.0 mm
07:36 AM 37.0°F2.8°C 30.1°F-1.1°C 76% 12.0 mph SW19.3 kmh SW 16.0 mph25.7 kmh 30.04 in1017.3 mb 0.00 in0.0 mm 0.00 in0.0 mm 0.00 in0.0 mm
07:31 AM 36.9°F2.7°C 30.0°F-1.1°C 76% 10.0 mph W16.1 kmh W 16.0 mph25.7 kmh 30.03 in1016.9 mb 0.00 in0.0 mm 0.00 in0.0 mm 0.00 in0.0 mm
07:26 AM 36.9°F2.7°C 30.0°F-1.1°C 76% 9.0 mph WSW14.5 kmh WSW 16.0 mph25.7 kmh 30.03 in1016.9 mb 0.00 in0.0 mm 0.00 in0.0 mm 0.00 in0.0 mm
07:21 AM 36.8°F2.7°C 30.2°F-1.0°C 77% 6.0 mph SW9.7 kmh SW 16.0 mph25.7 kmh 30.04 in1017.3 mb 0.00 in0.0 mm 0.00 in0.0 mm 0.00 in0.0 mm
07:16 AM 36.8°F2.7°C 30.2°F-1.0°C 77% 8.0 mph WSW12.9 kmh WSW 12.0 mph19.3 kmh 30.03 in1016.9 mb 0.00 in0.0 mm 0.00 in0.0 mm 0.00 in0.0 mm
07:11 AM 36.7°F2.6°C 30.1°F-1.1°C 77% 11.0 mph WSW17.7 kmh WSW 15.0 mph24.1 kmh 30.03 in1016.9 mb 0.00 in0.0 mm 0.00 in0.0 mm 0.00 in0.0 mm
07:06 AM 36.7°F2.6°C 30.1°F-1.1°C 77% 8.0 mph WSW12.9 kmh WSW 15.0 mph24.1 kmh 30.03 in1016.9 mb 0.00 in0.0 mm 0.00 in0.0 mm 0.00 in0.0 mm
07:01 AM 36.7°F2.6°C 30.1°F-1.1°C 77% 3.0 mph WSW4.8 kmh WSW 15.0 mph24.1 kmh 30.03 in1016.9 mb 0.00 in0.0 mm 0.00 in0.0 mm 0.00 in0.0 mm
06:56 AM 36.6°F2.6°C 30.3°F-0.9°C 78% 7.0 mph WSW11.3 kmh WSW 15.0 mph24.1 kmh 30.03 in1016.9 mb 0.00 in0.0 mm 0.00 in0.0 mm 0.00 in0.0 mm
06:51 AM 36.5°F2.5°C 30.2°F-1.0°C 78% 3.0 mph WSW4.8 kmh WSW 13.0 mph20.9 kmh 30.03 in1016.9 mb 0.00 in0.0 mm 0.00 in0.0 mm 0.00 in0.0 mm
06:46 AM 36.4°F2.4°C 30.2°F-1.0°C 78% 5.0 mph WSW8.0 kmh WSW 13.0 mph20.9 kmh 30.03 in1016.9 mb 0.00 in0.0 mm 0.00 in0.0 mm 0.00 in0.0 mm
06:41 AM 36.3°F2.4°C 30.4°F-0.9°C 79% 5.0 mph WSW8.0 kmh WSW 11.0 mph17.7 kmh 30.03 in1016.9 mb 0.00 in0.0 mm 0.00 in0.0 mm 0.00 in0.0 mm
06:36 AM 36.3°F2.4°C 30.4°F-0.9°C 79% 4.0 mph SW6.4 kmh SW 12.0 mph19.3 kmh 30.03 in1016.9 mb 0.00 in0.0 mm 0.00 in0.0 mm 0.00 in0.0 mm
06:31 AM 36.2°F2.3°C 30.3°F-0.9°C 79% 6.0 mph WSW9.7 kmh WSW 12.0 mph19.3 kmh 30.02 in1016.6 mb 0.00 in0.0 mm 0.00 in0.0 mm 0.00 in0.0 mm
06:26 AM 36.0°F2.2°C 30.1°F-1.1°C 79% 3.0 mph SW4.8 kmh SW 12.0 mph19.3 kmh 30.02 in1016.6 mb 0.00 in0.0 mm 0.00 in0.0 mm 0.00 in0.0 mm
06:21 AM 36.0°F2.2°C 30.4°F-0.9°C 80% 4.0 mph WSW6.4 kmh WSW 12.0 mph19.3 kmh 30.02 in1016.6 mb 0.00 in0.0 mm 0.00 in0.0 mm 0.00 in0.0 mm
06:16 AM 35.9°F2.2°C 30.0°F-1.1°C 79% 4.0 mph SW6.4 kmh SW 12.0 mph19.3 kmh 30.02 in1016.6 mb 0.00 in0.0 mm 0.00 in0.0 mm 0.00 in0.0 mm
06:11 AM 35.7°F2.1°C 30.1°F-1.1°C 80% 6.0 mph SW9.7 kmh SW 12.0 mph19.3 kmh 30.01 in1016.3 mb 0.00 in0.0 mm 0.00 in0.0 mm 0.00 in0.0 mm
06:06 AM 35.6°F2.0°C 30.0°F-1.1°C 80% 6.0 mph SW9.7 kmh SW 10.0 mph16.1 kmh 30.01 in1016.3 mb 0.00 in0.0 mm 0.00 in0.0 mm 0.00 in0.0 mm
06:01 AM 35.5°F1.9°C 29.6°F-1.3°C 79% 6.0 mph WSW9.7 kmh WSW 10.0 mph16.1 kmh 30.01 in1016.3 mb 0.00 in0.0 mm 0.00 in0.0 mm 0.00 in0.0 mm
05:56 AM 35.4°F1.9°C 29.5°F-1.4°C 79% 3.0 mph WSW4.8 kmh WSW 9.0 mph14.5 kmh 30.01 in1016.3 mb 0.00 in0.0 mm 0.00 in0.0 mm 0.00 in0.0 mm
05:51 AM 35.3°F1.8°C 29.4°F-1.4°C 79% 4.0 mph S6.4 kmh S 11.0 mph17.7 kmh 30.01 in1016.3 mb 0.00 in0.0 mm 0.00 in0.0 mm 0.00 in0.0 mm
05:46 AM 35.3°F1.8°C 29.1°F-1.6°C 78% 8.0 mph WSW12.9 kmh WSW 11.0 mph17.7 kmh 30.01 in1016.3 mb 0.00 in0.0 mm 0.00 in0.0 mm 0.00 in0.0 mm
05:41 AM 35.3°F1.8°C 29.1°F-1.6°C 78% 8.0 mph WSW12.9 kmh WSW 13.0 mph20.9 kmh 30.01 in1016.3 mb 0.00 in0.0 mm 0.00 in0.0 mm 0.00 in0.0 mm
05:36 AM 35.3°F1.8°C 29.1°F-1.6°C 78% 9.0 mph WSW14.5 kmh WSW 13.0 mph20.9 kmh 30.01 in1016.3 mb 0.00 in0.0 mm 0.00 in0.0 mm 0.00 in0.0 mm
05:31 AM 35.3°F1.8°C 28.8°F-1.8°C 77% 8.0 mph WSW12.9 kmh WSW 13.0 mph20.9 kmh 30.01 in1016.3 mb 0.00 in0.0 mm 0.00 in0.0 mm 0.00 in0.0 mm
05:26 AM 35.4°F1.9°C 28.9°F-1.7°C 77% 8.0 mph WNW12.9 kmh WNW 13.0 mph20.9 kmh 30.01 in1016.3 mb 0.00 in0.0 mm 0.00 in0.0 mm 0.00 in0.0 mm
05:21 AM 35.5°F1.9°C 29.0°F-1.7°C 77% 5.0 mph W8.0 kmh W 13.0 mph20.9 kmh 30.00 in1015.9 mb 0.00 in0.0 mm 0.00 in0.0 mm 0.00 in0.0 mm
05:16 AM 35.5°F1.9°C 29.0°F-1.7°C 77% 8.0 mph WSW12.9 kmh WSW 13.0 mph20.9 kmh 30.00 in1015.9 mb 0.00 in0.0 mm 0.00 in0.0 mm 0.00 in0.0 mm
05:11 AM 35.6°F2.0°C 29.1°F-1.6°C 77% 4.0 mph W6.4 kmh W 13.0 mph20.9 kmh 30.00 in1015.9 mb 0.00 in0.0 mm 0.00 in0.0 mm 0.00 in0.0 mm
05:06 AM 35.6°F2.0°C 29.1°F-1.6°C 77% 8.0 mph W12.9 kmh W 13.0 mph20.9 kmh 30.00 in1015.9 mb 0.00 in0.0 mm 0.00 in0.0 mm 0.00 in0.0 mm
05:01 AM 35.6°F2.0°C 29.1°F-1.6°C 77% 8.0 mph WSW12.9 kmh WSW 12.0 mph19.3 kmh 30.00 in1015.9 mb 0.00 in0.0 mm 0.00 in0.0 mm 0.00 in0.0 mm
04:56 AM 35.6°F2.0°C 29.1°F-1.6°C 77% 5.0 mph WSW8.0 kmh WSW 13.0 mph20.9 kmh 30.00 in1015.9 mb 0.00 in0.0 mm 0.00 in0.0 mm 0.00 in0.0 mm
04:51 AM 35.7°F2.1°C 29.1°F-1.6°C 77% 7.0 mph WSW11.3 kmh WSW 13.0 mph20.9 kmh 30.00 in1015.9 mb 0.00 in0.0 mm 0.00 in0.0 mm 0.00 in0.0 mm
04:46 AM 35.7°F2.1°C 29.1°F-1.6°C 77% 6.0 mph WSW9.7 kmh WSW 13.0 mph20.9 kmh 30.00 in1015.9 mb 0.00 in0.0 mm 0.00 in0.0 mm 0.00 in0.0 mm
04:41 AM 35.7°F2.1°C 29.1°F-1.6°C 77% 5.0 mph WSW8.0 kmh WSW 13.0 mph20.9 kmh 29.99 in1015.6 mb 0.00 in0.0 mm 0.00 in0.0 mm 0.00 in0.0 mm
04:36 AM 35.8°F2.1°C 28.9°F-1.7°C 76% 10.0 mph SW16.1 kmh SW 12.0 mph19.3 kmh 29.99 in1015.6 mb 0.00 in0.0 mm 0.00 in0.0 mm 0.00 in0.0 mm
04:31 AM 35.8°F2.1°C 28.9°F-1.7°C 76% 6.0 mph WSW9.7 kmh WSW 12.0 mph19.3 kmh 29.99 in1015.6 mb 0.00 in0.0 mm 0.00 in0.0 mm 0.00 in0.0 mm
04:26 AM 35.9°F2.2°C 29.3°F-1.5°C 77% 7.0 mph WSW11.3 kmh WSW 11.0 mph17.7 kmh 29.99 in1015.6 mb 0.00 in0.0 mm 0.00 in0.0 mm 0.00 in0.0 mm
04:21 AM 36.0°F2.2°C 29.1°F-1.6°C 76% 9.0 mph WSW14.5 kmh WSW 11.0 mph17.7 kmh 29.99 in1015.6 mb 0.00 in0.0 mm 0.00 in0.0 mm 0.00 in0.0 mm
04:16 AM 36.2°F2.3°C 29.6°F-1.3°C 77% 6.0 mph WSW9.7 kmh WSW 13.0 mph20.9 kmh 29.99 in1015.6 mb 0.00 in0.0 mm 0.00 in0.0 mm 0.00 in0.0 mm
04:11 AM 36.2°F2.3°C 29.6°F-1.3°C 77% 4.0 mph W6.4 kmh W 13.0 mph20.9 kmh 29.99 in1015.6 mb 0.00 in0.0 mm 0.00 in0.0 mm 0.00 in0.0 mm
04:06 AM 36.3°F2.4°C 29.7°F-1.3°C 77% 7.0 mph WSW11.3 kmh WSW 13.0 mph20.9 kmh 29.99 in1015.6 mb 0.00 in0.0 mm 0.00 in0.0 mm 0.00 in0.0 mm
04:01 AM 36.4°F2.4°C 29.8°F-1.2°C 77% 5.0 mph WSW8.0 kmh WSW 13.0 mph20.9 kmh 29.99 in1015.6 mb 0.00 in0.0 mm 0.00 in0.0 mm 0.00 in0.0 mm
03:56 AM 36.4°F2.4°C 29.8°F-1.2°C 77% 7.0 mph WSW11.3 kmh WSW 12.0 mph19.3 kmh 29.99 in1015.6 mb 0.00 in0.0 mm 0.00 in0.0 mm 0.00 in0.0 mm
03:51 AM 36.4°F2.4°C 30.2°F-1.0°C 78% 5.0 mph SW8.0 kmh SW 11.0 mph17.7 kmh 29.99 in1015.6 mb 0.00 in0.0 mm 0.00 in0.0 mm 0.00 in0.0 mm
03:46 AM 36.5°F2.5°C 30.2°F-1.0°C 78% 6.0 mph WSW9.7 kmh WSW 11.0 mph17.7 kmh 29.99 in1015.6 mb 0.00 in0.0 mm 0.00 in0.0 mm 0.00 in0.0 mm
03:41 AM 36.5°F2.5°C 30.2°F-1.0°C 78% 3.0 mph WSW4.8 kmh WSW 11.0 mph17.7 kmh 29.99 in1015.6 mb 0.00 in0.0 mm 0.00 in0.0 mm 0.00 in0.0 mm
03:36 AM 36.5°F2.5°C 30.2°F-1.0°C 78% 2.0 mph W3.2 kmh W 8.0 mph12.9 kmh 29.99 in1015.6 mb 0.00 in0.0 mm 0.00 in0.0 mm 0.00 in0.0 mm
03:31 AM 36.5°F2.5°C 29.9°F-1.2°C 77% 3.0 mph WSW4.8 kmh WSW 9.0 mph14.5 kmh 29.99 in1015.6 mb 0.00 in0.0 mm 0.00 in0.0 mm 0.00 in0.0 mm
03:26 AM 36.6°F2.6°C 30.0°F-1.1°C 77% 6.0 mph WSW9.7 kmh WSW 9.0 mph14.5 kmh 29.99 in1015.6 mb 0.00 in0.0 mm 0.00 in0.0 mm 0.00 in0.0 mm
03:21 AM 36.6°F2.6°C 30.0°F-1.1°C 77% 5.0 mph WSW8.0 kmh WSW 12.0 mph19.3 kmh 29.99 in1015.6 mb 0.00 in0.0 mm 0.00 in0.0 mm 0.00 in0.0 mm
03:16 AM 36.7°F2.6°C 30.1°F-1.1°C 77% 8.0 mph SW12.9 kmh SW 12.0 mph19.3 kmh 29.99 in1015.6 mb 0.00 in0.0 mm 0.00 in0.0 mm 0.00 in0.0 mm
03:11 AM 36.7°F2.6°C 30.1°F-1.1°C 77% 9.0 mph WSW14.5 kmh WSW 12.0 mph19.3 kmh 29.99 in1015.6 mb 0.00 in0.0 mm 0.00 in0.0 mm 0.00 in0.0 mm
03:06 AM 36.7°F2.6°C 29.8°F-1.2°C 76% 5.0 mph WSW8.0 kmh WSW 12.0 mph19.3 kmh 29.99 in1015.6 mb 0.00 in0.0 mm 0.00 in0.0 mm 0.00 in0.0 mm
03:01 AM 36.7°F2.6°C 29.8°F-1.2°C 76% 6.0 mph W9.7 kmh W 11.0 mph17.7 kmh 29.99 in1015.6 mb 0.00 in0.0 mm 0.00 in0.0 mm 0.00 in0.0 mm
02:56 AM 36.8°F2.7°C 29.9°F-1.2°C 76% 5.0 mph WSW8.0 kmh WSW 11.0 mph17.7 kmh 29.99 in1015.6 mb 0.00 in0.0 mm 0.00 in0.0 mm 0.00 in0.0 mm
02:51 AM 36.9°F2.7°C 30.0°F-1.1°C 76% 6.0 mph WSW9.7 kmh WSW 11.0 mph17.7 kmh 29.99 in1015.6 mb 0.00 in0.0 mm 0.00 in0.0 mm 0.00 in0.0 mm
02:46 AM 37.1°F2.8°C 29.8°F-1.2°C 75% 6.0 mph WSW9.7 kmh WSW 11.0 mph17.7 kmh 29.98 in1015.2 mb 0.00 in0.0 mm 0.00 in0.0 mm 0.00 in0.0 mm
02:41 AM 37.2°F2.9°C 29.9°F-1.2°C 75% 5.0 mph WSW8.0 kmh WSW 9.0 mph14.5 kmh 29.98 in1015.2 mb 0.00 in0.0 mm 0.00 in0.0 mm 0.00 in0.0 mm
02:36 AM 37.3°F2.9°C 30.0°F-1.1°C 75% 8.0 mph WSW12.9 kmh WSW 9.0 mph14.5 kmh 29.98 in1015.2 mb 0.00 in0.0 mm 0.00 in0.0 mm 0.00 in0.0 mm
02:31 AM 37.4°F3.0°C 30.1°F-1.1°C 75% 5.0 mph WSW8.0 kmh WSW 11.0 mph17.7 kmh 29.98 in1015.2 mb 0.00 in0.0 mm 0.00 in0.0 mm 0.00 in0.0 mm
02:26 AM 37.6°F3.1°C 30.0°F-1.1°C 74% 3.0 mph WSW4.8 kmh WSW 11.0 mph17.7 kmh 29.98 in1015.2 mb 0.00 in0.0 mm 0.00 in0.0 mm 0.00 in0.0 mm
02:21 AM 37.7°F3.2°C 30.1°F-1.1°C 74% 4.0 mph WSW6.4 kmh WSW 14.0 mph22.5 kmh 29.98 in1015.2 mb 0.00 in0.0 mm 0.00 in0.0 mm 0.00 in0.0 mm
02:16 AM 37.9°F3.3°C 30.3°F-0.9°C 74% 7.0 mph WSW11.3 kmh WSW 14.0 mph22.5 kmh 29.97 in1014.9 mb 0.00 in0.0 mm 0.00 in0.0 mm 0.00 in0.0 mm
02:11 AM 38.0°F3.3°C 30.7°F-0.7°C 75% 5.0 mph SW8.0 kmh SW 14.0 mph22.5 kmh 29.97 in1014.9 mb 0.00 in0.0 mm 0.00 in0.0 mm 0.00 in0.0 mm
02:06 AM 38.1°F3.4°C 30.8°F-0.7°C 75% 5.0 mph WSW8.0 kmh WSW 14.0 mph22.5 kmh 29.98 in1015.2 mb 0.00 in0.0 mm 0.00 in0.0 mm 0.00 in0.0 mm
02:01 AM 38.2°F3.4°C 30.9°F-0.6°C 75% 9.0 mph WSW14.5 kmh WSW 14.0 mph22.5 kmh 29.97 in1014.9 mb 0.00 in0.0 mm 0.00 in0.0 mm 0.00 in0.0 mm
01:56 AM 38.3°F3.5°C 31.0°F-0.6°C 75% 6.0 mph WSW9.7 kmh WSW 14.0 mph22.5 kmh 29.97 in1014.9 mb 0.00 in0.0 mm 0.00 in0.0 mm 0.00 in0.0 mm
01:51 AM 38.3°F3.5°C 31.0°F-0.6°C 75% 8.0 mph WSW12.9 kmh WSW 14.0 mph22.5 kmh 29.97 in1014.9 mb 0.00 in0.0 mm 0.00 in0.0 mm 0.00 in0.0 mm
01:46 AM 38.3°F3.5°C 31.0°F-0.6°C 75% 5.0 mph W8.0 kmh W 14.0 mph22.5 kmh 29.97 in1014.9 mb 0.00 in0.0 mm 0.00 in0.0 mm 0.00 in0.0 mm
01:41 AM 38.3°F3.5°C 31.0°F-0.6°C 75% 5.0 mph WSW8.0 kmh WSW 12.0 mph19.3 kmh 29.97 in1014.9 mb 0.00 in0.0 mm 0.00 in0.0 mm 0.00 in0.0 mm
01:36 AM 38.4°F3.6°C 31.1°F-0.5°C 75% 5.0 mph WSW8.0 kmh WSW 12.0 mph19.3 kmh 29.97 in1014.9 mb 0.00 in0.0 mm 0.00 in0.0 mm 0.00 in0.0 mm
01:31 AM 38.4°F3.6°C 31.1°F-0.5°C 75% 5.0 mph WSW8.0 kmh WSW 20.0 mph32.2 kmh 29.97 in1014.9 mb 0.00 in0.0 mm 0.00 in0.0 mm 0.00 in0.0 mm
01:26 AM 38.4°F3.6°C 30.8°F-0.7°C 74% 4.0 mph WSW6.4 kmh WSW 20.0 mph32.2 kmh 29.97 in1014.9 mb 0.00 in0.0 mm 0.00 in0.0 mm 0.00 in0.0 mm
01:21 AM 38.5°F3.6°C 30.8°F-0.7°C 74% 15.0 mph WSW24.1 kmh WSW 20.0 mph32.2 kmh 29.96 in1014.6 mb 0.00 in0.0 mm 0.00 in0.0 mm 0.00 in0.0 mm
01:16 AM 38.5°F3.6°C 31.2°F-0.4°C 75% 7.0 mph WSW11.3 kmh WSW 20.0 mph32.2 kmh 29.96 in1014.6 mb 0.00 in0.0 mm 0.00 in0.0 mm 0.00 in0.0 mm
01:11 AM 38.5°F3.6°C 31.2°F-0.4°C 75% 5.0 mph SW8.0 kmh SW 15.0 mph24.1 kmh 29.96 in1014.6 mb 0.00 in0.0 mm 0.00 in0.0 mm 0.00 in0.0 mm
01:06 AM 38.5°F3.6°C 31.2°F-0.4°C 75% 4.0 mph WSW6.4 kmh WSW 15.0 mph24.1 kmh 29.96 in1014.6 mb 0.00 in0.0 mm 0.00 in0.0 mm 0.00 in0.0 mm
01:01 AM 38.6°F3.7°C 31.3°F-0.4°C 75% 5.0 mph W8.0 kmh W 14.0 mph22.5 kmh 29.96 in1014.6 mb 0.00 in0.0 mm 0.00 in0.0 mm 0.00 in0.0 mm
12:56 AM 38.6°F3.7°C 31.3°F-0.4°C 75% 4.0 mph WSW6.4 kmh WSW 14.0 mph22.5 kmh 29.96 in1014.6 mb 0.00 in0.0 mm 0.00 in0.0 mm 0.00 in0.0 mm
12:51 AM 38.6°F3.7°C 31.3°F-0.4°C 75% 10.0 mph WSW16.1 kmh WSW 14.0 mph22.5 kmh 29.96 in1014.6 mb 0.00 in0.0 mm 0.00 in0.0 mm 0.00 in0.0 mm
12:46 AM 38.7°F3.7°C 31.4°F-0.3°C 75% 4.0 mph WSW6.4 kmh WSW 15.0 mph24.1 kmh 29.96 in1014.6 mb 0.00 in0.0 mm 0.00 in0.0 mm 0.00 in0.0 mm
12:41 AM 38.7°F3.7°C 31.0°F-0.6°C 74% 4.0 mph WSW6.4 kmh WSW 15.0 mph24.1 kmh 29.96 in1014.6 mb 0.00 in0.0 mm 0.00 in0.0 mm 0.00 in0.0 mm
12:36 AM 38.8°F3.8°C 31.1°F-0.5°C 74% 5.0 mph WSW8.0 kmh WSW 15.0 mph24.1 kmh 29.96 in1014.6 mb 0.00 in0.0 mm 0.00 in0.0 mm 0.00 in0.0 mm
12:31 AM 38.9°F3.8°C 31.2°F-0.4°C 74% 7.0 mph WSW11.3 kmh WSW 15.0 mph24.1 kmh 29.96 in1014.6 mb 0.00 in0.0 mm 0.00 in0.0 mm 0.00 in0.0 mm
12:26 AM 38.9°F3.8°C 31.2°F-0.4°C 74% 3.0 mph WSW4.8 kmh WSW 14.0 mph22.5 kmh 29.96 in1014.6 mb 0.00 in0.0 mm 0.00 in0.0 mm 0.00 in0.0 mm
12:21 AM 39.0°F3.9°C 31.3°F-0.4°C 74% 9.0 mph WSW14.5 kmh WSW 16.0 mph25.7 kmh 29.96 in1014.6 mb 0.00 in0.0 mm 0.00 in0.0 mm 0.00 in0.0 mm
12:16 AM 39.0°F3.9°C 31.3°F-0.4°C 74% 5.0 mph WSW8.0 kmh WSW 16.0 mph25.7 kmh 29.95 in1014.2 mb 0.00 in0.0 mm 0.00 in0.0 mm 0.00 in0.0 mm
12:11 AM 39.0°F3.9°C 31.3°F-0.4°C 74% 12.0 mph WSW19.3 kmh WSW 18.0 mph29.0 kmh 29.95 in1014.2 mb 0.00 in0.0 mm 0.00 in0.0 mm 0.00 in0.0 mm
12:06 AM 39.1°F3.9°C 31.4°F-0.3°C 74% 9.0 mph SW14.5 kmh SW 18.0 mph29.0 kmh 29.95 in1014.2 mb 0.00 in0.0 mm 0.00 in0.0 mm 0.00 in0.0 mm
12:01 AM 39.1°F3.9°C 31.4°F-0.3°C 74% 7.0 mph W11.3 kmh W 21.0 mph33.8 kmh 29.95 in1014.2 mb 0.00 in0.0 mm 0.00 in0.0 mm 0.00 in0.0 mm